createdAt,value
2023-03-10T00:00:15.157Z,9.10
2023-03-10T00:02:46.755Z,9.60
2023-03-10T00:05:14.019Z,9.30
2023-03-10T00:07:40.892Z,9.23
2023-03-10T00:10:08.244Z,8.73
2023-03-10T00:12:35.047Z,9.55
2023-03-10T00:15:01.957Z,9.35
2023-03-10T00:17:29.696Z,11.30
2023-03-10T00:19:56.756Z,11.95
2023-03-10T00:22:23.635Z,10.73
2023-03-10T00:24:50.561Z,11.98
2023-03-10T00:27:17.424Z,11.15
2023-03-10T00:29:44.304Z,12.77
2023-03-10T00:32:18.200Z,12.55
2023-03-10T00:34:45.089Z,12.25
2023-03-10T00:37:11.969Z,12.13
2023-03-10T00:39:38.864Z,12.18
2023-03-10T00:42:06.270Z,11.52
2023-03-10T00:44:33.330Z,9.77
2023-03-10T00:47:00.154Z,11.40
2023-03-10T00:49:27.120Z,11.57
2023-03-10T00:51:54.013Z,11.25
2023-03-10T00:54:21.010Z,10.02
2023-03-10T00:56:47.815Z,9.50
2023-03-10T00:59:14.646Z,10.40
2023-03-10T01:01:42.840Z,8.88
2023-03-10T01:04:15.726Z,8.75
2023-03-10T01:06:44.679Z,10.00
2023-03-10T01:09:11.519Z,9.38
2023-03-10T01:11:38.386Z,9.23
2023-03-10T01:14:08.068Z,8.25
2023-03-10T01:16:35.484Z,9.10
2023-03-10T01:19:02.508Z,10.63
2023-03-10T01:21:35.382Z,13.35
2023-03-10T01:24:02.984Z,16.63
2023-03-10T01:26:30.939Z,16.42
2023-03-10T01:28:58.311Z,16.25
2023-03-10T01:31:25.342Z,13.75
2023-03-10T01:33:52.296Z,13.75
2023-03-10T01:36:23.228Z,12.70
2023-03-10T01:38:50.150Z,11.70
2023-03-10T01:41:18.817Z,11.70
2023-03-10T01:43:49.181Z,9.75
2023-03-10T01:46:38.033Z,9.63
2023-03-10T01:49:12.966Z,9.50
2023-03-10T01:51:43.790Z,9.20
2023-03-10T01:54:15.901Z,9.07
2023-03-10T01:56:43.113Z,9.40
2023-03-10T01:59:11.284Z,8.65
2023-03-10T02:01:38.444Z,8.20
2023-03-10T02:04:14.873Z,8.27
2023-03-10T02:07:01.744Z,6.80
2023-03-10T02:09:29.439Z,8.13
2023-03-10T02:11:58.384Z,7.63
2023-03-10T02:14:26.111Z,7.80
2023-03-10T02:16:52.979Z,8.30
2023-03-10T02:19:57.497Z,8.25
2023-03-10T02:22:24.817Z,8.32
2023-03-10T02:24:57.985Z,9.70
2023-03-10T02:27:27.413Z,10.15
2023-03-10T02:30:25.216Z,9.77
2023-03-10T02:33:00.193Z,9.18
2023-03-10T02:35:27.535Z,9.63
2023-03-10T02:37:54.828Z,9.05
2023-03-10T02:40:48.191Z,8.20
2023-03-10T02:43:28.891Z,8.07
2023-03-10T02:46:00.207Z,7.95
2023-03-10T02:48:33.620Z,8.93
2023-03-10T02:51:03.397Z,7.75
2023-03-10T02:53:30.929Z,8.68
2023-03-10T02:55:59.283Z,8.07
2023-03-10T02:58:28.512Z,8.90
2023-03-10T03:00:56.101Z,8.90
2023-03-10T03:03:23.655Z,8.60
2023-03-10T03:05:51.369Z,8.82
2023-03-10T03:08:19.934Z,8.45
2023-03-10T03:10:46.874Z,9.02
2023-03-10T03:13:14.237Z,8.85
2023-03-10T03:15:41.489Z,8.82
2023-03-10T03:18:08.988Z,9.07
2023-03-10T03:20:38.515Z,8.65
2023-03-10T03:23:05.799Z,9.68
2023-03-10T03:25:36.349Z,7.47
2023-03-10T03:28:03.812Z,7.75
2023-03-10T03:30:31.187Z,7.20
2023-03-10T03:32:58.614Z,7.47
2023-03-10T03:35:29.637Z,5.00
2023-03-10T03:37:57.553Z,5.22
2023-03-10T03:40:26.384Z,5.53
2023-03-10T03:42:54.512Z,5.60
2023-03-10T03:45:24.871Z,6.40
2023-03-10T03:47:52.390Z,7.57
2023-03-10T03:50:21.337Z,7.57
2023-03-10T03:52:48.800Z,7.55
2023-03-10T03:55:17.303Z,8.10
2023-03-10T03:57:47.641Z,8.10
2023-03-10T04:00:24.045Z,8.10
2023-03-10T04:02:51.434Z,7.28
2023-03-10T04:05:18.908Z,7.70
2023-03-10T04:07:50.298Z,8.25
2023-03-10T04:10:20.503Z,7.50
2023-03-10T04:12:47.660Z,8.18
2023-03-10T04:15:14.888Z,8.13
2023-03-10T04:17:42.324Z,7.70
2023-03-10T04:20:11.853Z,7.70
2023-03-10T04:22:38.995Z,8.15
2023-03-10T04:25:07.554Z,7.85
2023-03-10T04:27:35.085Z,7.95
2023-03-10T04:30:02.383Z,7.47
2023-03-10T04:32:29.462Z,7.68
2023-03-10T04:34:56.428Z,8.63
2023-03-10T04:37:23.936Z,8.05
2023-03-10T04:39:50.765Z,8.45
2023-03-10T04:42:17.916Z,8.05
2023-03-10T04:44:44.896Z,8.13
2023-03-10T04:47:12.229Z,9.20
2023-03-10T04:49:39.215Z,8.43
2023-03-10T04:52:06.534Z,8.40
2023-03-10T04:54:52.021Z,7.72
2023-03-10T04:57:19.219Z,7.78
2023-03-10T04:59:46.268Z,7.55
2023-03-10T05:02:15.414Z,8.25
2023-03-10T05:04:43.128Z,7.32
2023-03-10T05:07:10.430Z,7.57
2023-03-10T05:09:38.020Z,12.50
2023-03-10T05:12:05.780Z,24.00
2023-03-10T05:14:32.796Z,30.33
2023-03-10T05:16:59.742Z,12.77
2023-03-10T05:19:27.190Z,10.23
2023-03-10T05:21:54.316Z,7.43
2023-03-10T05:24:21.234Z,5.75
2023-03-10T05:26:48.402Z,5.90
2023-03-10T05:29:15.306Z,6.57
2023-03-10T05:31:42.287Z,7.93
2023-03-10T05:34:09.410Z,8.68
2023-03-10T05:36:36.351Z,7.38
2023-03-10T05:39:03.500Z,7.50
2023-03-10T05:41:30.353Z,7.30
2023-03-10T05:43:57.359Z,7.22
2023-03-10T05:46:24.948Z,7.30
2023-03-10T05:48:52.085Z,6.78
2023-03-10T05:51:19.150Z,8.52
2023-03-10T05:53:46.056Z,7.82
2023-03-10T05:56:15.847Z,8.65
2023-03-10T05:58:46.048Z,9.93
2023-03-10T06:01:14.152Z,9.10
2023-03-10T06:03:41.704Z,9.18
2023-03-10T06:06:09.024Z,8.95
2023-03-10T06:08:36.216Z,8.23
2023-03-10T06:11:03.707Z,7.10
2023-03-10T06:13:31.925Z,6.90
2023-03-10T06:16:02.346Z,7.43
2023-03-10T06:18:29.948Z,6.80
2023-03-10T06:20:57.390Z,6.50
2023-03-10T06:23:27.558Z,6.43
2023-03-10T06:26:06.246Z,6.22
2023-03-10T06:28:36.777Z,8.45
2023-03-10T06:31:27.122Z,8.82
2023-03-10T06:33:54.391Z,9.00
2023-03-10T06:36:22.890Z,7.18
2023-03-10T06:38:51.370Z,6.68
2023-03-10T06:41:18.602Z,5.88
2023-03-10T06:43:45.717Z,5.20
2023-03-10T06:46:13.764Z,4.60
2023-03-10T06:48:42.039Z,4.63
2023-03-10T06:51:11.685Z,5.60
2023-03-10T06:53:38.770Z,6.47
2023-03-10T06:56:12.205Z,6.22
2023-03-10T06:58:57.520Z,7.15
2023-03-10T07:01:33.229Z,7.97
2023-03-10T07:04:01.487Z,8.23
2023-03-10T07:06:28.849Z,10.07
2023-03-10T07:08:55.899Z,10.40
2023-03-10T07:11:29.755Z,10.63
2023-03-10T07:13:57.001Z,11.55
2023-03-10T07:16:24.416Z,12.48
2023-03-10T07:18:51.290Z,12.35
2023-03-10T07:21:21.696Z,10.70
2023-03-10T07:23:48.941Z,10.45
2023-03-10T07:26:19.029Z,9.40
2023-03-10T07:28:45.912Z,10.00
2023-03-10T07:31:14.346Z,10.10
2023-03-10T07:33:41.273Z,10.15
2023-03-10T07:36:11.438Z,11.40
2023-03-10T07:38:38.403Z,12.13
2023-03-10T07:41:14.857Z,11.55
2023-03-10T07:43:41.765Z,12.13
2023-03-10T07:46:11.384Z,11.00
2023-03-10T07:48:38.693Z,8.52
2023-03-10T07:51:06.103Z,7.32
2023-03-10T07:53:33.363Z,7.30
2023-03-10T07:56:00.386Z,8.55
2023-03-10T07:58:28.010Z,6.82
2023-03-10T08:00:59.147Z,5.68
2023-03-10T08:03:27.651Z,5.82
2023-03-10T08:05:54.858Z,6.15
2023-03-10T08:08:23.264Z,6.03
2023-03-10T08:10:50.181Z,5.72
2023-03-10T08:13:17.253Z,5.40
2023-03-10T08:15:44.601Z,6.93
2023-03-10T08:18:11.982Z,9.80
2023-03-10T08:20:40.686Z,6.82
2023-03-10T08:23:26.475Z,8.70
2023-03-10T08:25:53.289Z,6.65
2023-03-10T08:28:20.140Z,6.15
2023-03-10T08:31:02.937Z,6.32
2023-03-10T08:33:31.605Z,5.85
2023-03-10T08:36:07.534Z,6.53
2023-03-10T08:38:36.483Z,6.97
2023-03-10T08:41:11.663Z,7.78
2023-03-10T08:43:39.355Z,10.85
2023-03-10T08:46:08.691Z,13.35
2023-03-10T08:48:42.568Z,10.00
2023-03-10T08:51:10.575Z,8.65
2023-03-10T08:53:38.205Z,8.38
2023-03-10T08:56:06.420Z,9.10
2023-03-10T08:58:34.101Z,10.48
2023-03-10T09:01:01.373Z,10.85
2023-03-10T09:03:31.375Z,11.18
2023-03-10T09:05:58.493Z,13.27
2023-03-10T09:08:27.569Z,13.50
2023-03-10T09:10:54.993Z,12.65
2023-03-10T09:13:22.325Z,10.70
2023-03-10T09:15:50.680Z,10.85
2023-03-10T09:18:17.616Z,10.43
2023-03-10T09:20:46.113Z,10.45
2023-03-10T09:23:14.725Z,10.95
2023-03-10T09:25:41.901Z,11.45
2023-03-10T09:28:10.505Z,10.90
2023-03-10T09:30:39.886Z,11.38
2023-03-10T09:33:16.786Z,11.80
2023-03-10T09:35:52.480Z,11.50
2023-03-10T09:38:25.450Z,12.40
2023-03-10T09:41:10.385Z,11.25
2023-03-10T09:43:57.193Z,11.40
2023-03-10T09:46:43.530Z,11.13
2023-03-10T09:49:31.626Z,12.33
2023-03-10T09:52:01.222Z,12.65
2023-03-10T09:54:40.070Z,12.23
2023-03-10T09:57:16.919Z,11.63
2023-03-10T09:59:47.811Z,10.77
2023-03-10T10:02:26.413Z,10.57
2023-03-10T10:04:57.348Z,8.98
2023-03-10T10:07:28.477Z,9.15
2023-03-10T10:10:09.605Z,8.85
2023-03-10T10:12:36.479Z,7.53
2023-03-10T10:15:39.695Z,9.90
2023-03-10T10:18:19.742Z,11.90
2023-03-10T10:20:59.435Z,12.25
2023-03-10T10:23:47.367Z,13.07
2023-03-10T10:26:17.368Z,12.73
2023-03-10T10:29:15.787Z,12.60
2023-03-10T10:31:43.259Z,11.50
2023-03-10T10:34:22.384Z,12.05
2023-03-10T10:36:52.212Z,11.88
2023-03-10T10:39:42.961Z,13.60
2023-03-10T10:42:30.467Z,12.88
2023-03-10T10:45:03.116Z,9.75
2023-03-10T10:47:34.024Z,9.50
2023-03-10T10:50:19.482Z,8.95
2023-03-10T10:52:50.176Z,10.75
2023-03-10T10:55:35.807Z,11.27
2023-03-10T10:58:06.831Z,12.40
2023-03-10T11:00:38.522Z,13.23
2023-03-10T11:03:49.128Z,14.93
2023-03-10T11:06:30.240Z,14.05
2023-03-10T11:09:12.604Z,15.95
2023-03-10T11:12:00.690Z,15.75
2023-03-10T11:14:46.236Z,18.15
2023-03-10T11:17:17.441Z,21.35
2023-03-10T11:19:45.841Z,22.63
2023-03-10T11:22:46.856Z,22.70
2023-03-10T11:25:37.059Z,23.75
2023-03-10T11:28:10.058Z,27.45
2023-03-10T11:30:38.830Z,32.38
2023-03-10T11:33:40.572Z,28.85
2023-03-10T11:36:25.559Z,34.38
2023-03-10T11:39:03.261Z,31.10
2023-03-10T11:41:37.708Z,39.42
2023-03-10T11:44:13.454Z,45.50
2023-03-10T11:47:18.928Z,42.50
2023-03-10T11:49:54.574Z,38.80
2023-03-10T11:52:25.174Z,36.60
2023-03-10T11:55:07.259Z,34.03
2023-03-10T11:57:43.809Z,31.50
2023-03-10T12:03:14.730Z,33.97
2023-03-10T12:06:01.381Z,26.30
2023-03-10T12:08:36.288Z,22.52
2023-03-10T12:11:07.070Z,23.65
2023-03-10T12:13:46.439Z,21.40
2023-03-10T12:16:25.995Z,22.73
2023-03-10T12:18:53.673Z,22.83
2023-03-10T12:21:23.709Z,22.25
2023-03-10T12:23:56.429Z,19.65
2023-03-10T12:27:00.126Z,16.85
2023-03-10T12:29:45.747Z,15.20
2023-03-10T12:32:57.176Z,15.68
2023-03-10T12:35:46.733Z,13.95
2023-03-10T12:38:36.741Z,14.88
2023-03-10T12:41:03.954Z,11.65
2023-03-10T12:43:49.027Z,10.45
2023-03-10T12:46:23.172Z,12.07
2023-03-10T12:49:20.903Z,9.68
2023-03-10T12:54:39.888Z,10.60
2023-03-10T12:57:35.907Z,9.60
2023-03-10T13:00:29.883Z,7.97
2023-03-10T13:03:25.044Z,7.22
2023-03-10T13:06:04.075Z,7.40
2023-03-10T13:08:35.454Z,5.72
2023-03-10T13:11:02.906Z,5.50
2023-03-10T13:13:34.219Z,5.70
2023-03-10T13:16:04.768Z,4.72
2023-03-10T13:18:32.170Z,5.65
2023-03-10T13:21:02.113Z,5.28
2023-03-10T13:23:35.012Z,4.82
2023-03-10T13:26:07.061Z,5.18
2023-03-10T13:28:35.351Z,5.05
2023-03-10T13:31:20.447Z,5.70
2023-03-10T13:33:53.329Z,6.60
2023-03-10T13:36:41.158Z,6.55
2023-03-10T13:41:41.013Z,8.00
2023-03-10T13:44:20.274Z,10.38
2023-03-10T13:46:55.777Z,10.40
2023-03-10T13:49:25.864Z,8.50
2023-03-10T13:52:04.340Z,6.78
2023-03-10T13:54:37.233Z,7.20
2023-03-10T13:57:19.380Z,8.10
2023-03-10T13:59:47.658Z,6.63
2023-03-10T14:02:30.445Z,7.55
2023-03-10T14:04:58.561Z,7.05
2023-03-10T14:07:31.574Z,5.60
2023-03-10T14:10:04.218Z,7.80
2023-03-10T14:12:43.497Z,4.45
2023-03-10T14:15:11.600Z,4.80
2023-03-10T14:17:39.649Z,4.90
2023-03-10T14:20:10.040Z,5.00
2023-03-10T14:22:43.442Z,8.95
2023-03-10T14:25:30.756Z,7.60
2023-03-10T14:28:04.508Z,4.72
2023-03-10T14:30:33.325Z,7.82
2023-03-10T14:33:01.408Z,5.90
2023-03-10T14:35:30.347Z,6.93
2023-03-10T14:37:57.323Z,6.05
2023-03-10T14:40:25.610Z,6.10
2023-03-10T14:42:54.639Z,6.07
2023-03-10T14:45:30.518Z,7.00
2023-03-10T14:47:59.531Z,7.00
2023-03-10T14:50:28.528Z,6.40
2023-03-10T14:52:55.708Z,6.43
2023-03-10T14:55:22.923Z,6.57
2023-03-10T14:57:57.238Z,8.38
2023-03-10T15:00:24.344Z,10.10
2023-03-10T15:02:51.172Z,11.23
2023-03-10T15:05:20.747Z,10.65
2023-03-10T15:07:48.983Z,10.50
2023-03-10T15:10:19.420Z,10.73
2023-03-10T15:12:47.523Z,12.00
2023-03-10T15:15:25.206Z,11.65
2023-03-10T15:17:52.347Z,12.75
2023-03-10T15:20:24.574Z,14.55
2023-03-10T15:22:52.422Z,14.88
2023-03-10T15:25:21.510Z,15.77
2023-03-10T15:27:49.779Z,14.77
2023-03-10T15:30:26.098Z,14.45
2023-03-10T15:32:53.376Z,16.25
2023-03-10T15:35:24.198Z,13.82
2023-03-10T15:37:52.423Z,14.82
2023-03-10T15:40:24.623Z,15.23
2023-03-10T15:42:52.566Z,15.10
2023-03-10T15:45:19.874Z,16.88
2023-03-10T15:47:47.622Z,16.60
2023-03-10T15:50:16.780Z,18.20
2023-03-10T15:52:50.998Z,16.08
2023-03-10T15:55:18.216Z,16.83
2023-03-10T15:57:48.088Z,17.83
2023-03-10T16:00:19.001Z,19.35
2023-03-10T16:02:47.207Z,18.50
2023-03-10T16:05:14.940Z,16.40
2023-03-10T16:07:41.943Z,18.77
2023-03-10T16:10:14.054Z,18.08
2023-03-10T16:12:40.953Z,18.48
2023-03-10T16:15:08.691Z,15.15
2023-03-10T16:17:35.570Z,13.05
2023-03-10T16:20:07.126Z,12.80
2023-03-10T16:22:34.083Z,12.02
2023-03-10T16:25:01.129Z,12.60
2023-03-10T16:27:27.940Z,13.10
2023-03-10T16:29:54.718Z,17.45
2023-03-10T16:32:21.614Z,16.48
2023-03-10T16:34:48.407Z,17.45
2023-03-10T16:37:15.204Z,18.80
2023-03-10T16:39:42.058Z,18.60
2023-03-10T16:42:08.823Z,18.55
2023-03-10T16:44:35.649Z,22.67
2023-03-10T16:47:03.293Z,23.05
2023-03-10T16:49:32.295Z,22.73
2023-03-10T16:51:59.881Z,20.45
2023-03-10T16:54:26.912Z,20.58
2023-03-10T16:56:57.146Z,19.40
2023-03-10T16:59:24.936Z,18.65
2023-03-10T17:01:52.213Z,19.85
2023-03-10T17:04:20.051Z,22.90
2023-03-10T17:06:47.794Z,21.85
2023-03-10T17:09:15.723Z,21.83
2023-03-10T17:11:49.738Z,21.17
2023-03-10T17:14:17.453Z,22.52
2023-03-10T17:16:45.433Z,27.13
2023-03-10T17:19:18.559Z,31.58
2023-03-10T17:21:48.532Z,34.83
2023-03-10T17:24:17.316Z,32.53
2023-03-10T17:26:44.594Z,37.22
2023-03-10T17:29:12.082Z,37.10
2023-03-10T17:31:39.211Z,35.72
2023-03-10T17:34:08.733Z,34.70
2023-03-10T17:36:35.662Z,36.85
2023-03-10T17:39:03.965Z,36.88
2023-03-10T17:41:32.652Z,40.15
2023-03-10T17:43:59.498Z,42.40
2023-03-10T17:46:29.251Z,28.13
2023-03-10T17:48:57.327Z,29.33
2023-03-10T17:51:26.595Z,25.67
2023-03-10T17:53:54.370Z,25.02
2023-03-10T17:56:22.625Z,26.30
2023-03-10T17:58:50.448Z,25.70
2023-03-10T18:01:20.822Z,25.65
2023-03-10T18:03:48.574Z,28.65
2023-03-10T18:06:16.546Z,34.22
2023-03-10T18:08:43.453Z,41.45
2023-03-10T18:11:11.157Z,42.78
2023-03-10T18:13:38.824Z,41.45
2023-03-10T18:16:06.666Z,39.80
2023-03-10T18:18:33.730Z,37.88
2023-03-10T18:21:02.082Z,40.50
2023-03-10T18:23:29.050Z,39.80
2023-03-10T18:25:55.879Z,37.47
2023-03-10T18:28:23.608Z,34.13
2023-03-10T18:30:52.163Z,31.73
2023-03-10T18:33:19.764Z,30.90
2023-03-10T18:35:47.471Z,23.17
2023-03-10T18:38:16.835Z,22.17
2023-03-10T18:40:43.892Z,22.13
2023-03-10T18:43:10.836Z,18.45
2023-03-10T18:45:39.714Z,19.25
2023-03-10T18:48:07.587Z,18.42
2023-03-10T18:50:34.672Z,18.67
2023-03-10T18:53:01.926Z,18.05
2023-03-10T18:55:28.823Z,16.88
2023-03-10T18:57:55.708Z,18.80
2023-03-10T19:00:22.976Z,17.92
2023-03-10T19:02:52.709Z,18.23
2023-03-10T19:05:19.795Z,18.05
2023-03-10T19:07:47.098Z,19.50
2023-03-10T19:10:16.495Z,20.92
2023-03-10T19:12:43.398Z,21.65
2023-03-10T19:15:13.277Z,23.95
2023-03-10T19:17:40.625Z,30.42
2023-03-10T19:20:11.520Z,28.25
2023-03-10T19:22:39.818Z,29.48
2023-03-10T19:25:11.893Z,27.35
2023-03-10T19:27:42.297Z,28.65
2023-03-10T19:30:17.200Z,31.80
2023-03-10T19:32:45.338Z,30.50
2023-03-10T19:35:12.684Z,29.45
2023-03-10T19:37:43.479Z,28.42
2023-03-10T19:40:15.055Z,30.08
2023-03-10T19:42:45.340Z,28.02
2023-03-10T19:45:15.932Z,27.25
2023-03-10T19:47:43.218Z,28.15
2023-03-10T19:50:15.368Z,26.88
2023-03-10T19:52:54.279Z,27.40
2023-03-10T19:55:23.629Z,26.75
2023-03-10T19:57:53.060Z,24.88
2023-03-10T20:00:28.214Z,24.48
2023-03-10T20:02:55.573Z,24.38
2023-03-10T20:05:25.566Z,23.00
2023-03-10T20:07:52.977Z,22.77
2023-03-10T20:10:20.024Z,21.55
2023-03-10T20:12:51.693Z,22.33
2023-03-10T20:15:18.951Z,22.83
2023-03-10T20:17:52.940Z,24.05
2023-03-10T20:20:20.663Z,28.52
2023-03-10T20:22:49.831Z,40.20
2023-03-10T20:25:20.440Z,26.92
2023-03-10T20:27:49.128Z,25.13
2023-03-10T20:30:28.084Z,24.85
2023-03-10T20:32:59.670Z,26.38
2023-03-10T20:35:28.865Z,25.70
2023-03-10T20:37:56.117Z,26.67
2023-03-10T20:40:24.458Z,26.85
2023-03-10T20:42:53.090Z,24.95
2023-03-10T20:45:20.447Z,25.08
2023-03-10T20:47:48.135Z,24.70
2023-03-10T20:50:16.705Z,24.52
2023-03-10T20:52:44.320Z,25.98
2023-03-10T20:55:28.765Z,25.65
2023-03-10T20:57:58.078Z,25.05
2023-03-10T21:00:26.631Z,26.60
2023-03-10T21:02:57.541Z,23.55
2023-03-10T21:05:26.199Z,23.80
2023-03-10T21:07:53.359Z,25.33
2023-03-10T21:10:20.616Z,25.10
2023-03-10T21:12:47.833Z,28.15
2023-03-10T21:15:16.984Z,29.20
2023-03-10T21:17:44.180Z,31.80
2023-03-10T21:20:15.556Z,29.95
2023-03-10T21:22:42.825Z,27.30
2023-03-10T21:25:13.417Z,19.85
2023-03-10T21:27:40.341Z,15.38
2023-03-10T21:30:10.173Z,11.77
2023-03-10T21:32:38.181Z,10.77
2023-03-10T21:35:05.721Z,9.43
2023-03-10T21:37:32.683Z,8.02
2023-03-10T21:39:59.547Z,7.85
2023-03-10T21:42:26.464Z,7.70
2023-03-10T21:44:55.299Z,8.02
2023-03-10T21:47:40.515Z,8.20
2023-03-10T21:50:08.885Z,9.80
2023-03-10T21:52:35.859Z,9.45
2023-03-10T21:55:03.679Z,11.00
2023-03-10T21:57:30.594Z,10.07
2023-03-10T21:59:57.424Z,9.82
2023-03-10T22:02:30.512Z,8.68
2023-03-10T22:04:57.578Z,6.95
2023-03-10T22:07:25.039Z,6.82
2023-03-10T22:09:52.036Z,6.10
2023-03-10T22:12:18.837Z,6.50
2023-03-10T22:14:46.256Z,6.90
2023-03-10T22:17:13.162Z,7.10
2023-03-10T22:19:39.946Z,9.20
2023-03-10T22:22:07.248Z,8.02
2023-03-10T22:24:34.079Z,9.48
2023-03-10T22:27:00.963Z,8.05
2023-03-10T22:29:27.925Z,7.85
2023-03-10T22:31:58.588Z,7.45
2023-03-10T22:34:25.403Z,7.55
2023-03-10T22:36:52.264Z,7.28
2023-03-10T22:39:19.660Z,8.18
2023-03-10T22:41:46.531Z,7.10
2023-03-10T22:44:13.633Z,7.20
2023-03-10T22:46:43.773Z,7.32
2023-03-10T22:49:12.101Z,10.20
2023-03-10T22:51:58.166Z,7.20
2023-03-10T22:54:25.701Z,6.15
2023-03-10T22:56:52.564Z,5.43
2023-03-10T22:59:19.413Z,5.50
2023-03-10T23:01:46.295Z,5.80
2023-03-10T23:04:14.128Z,6.20
2023-03-10T23:06:41.003Z,7.13
2023-03-10T23:09:10.419Z,8.73
2023-03-10T23:11:56.406Z,8.60
2023-03-10T23:14:23.269Z,10.13
2023-03-10T23:16:50.049Z,10.35
2023-03-10T23:19:17.260Z,11.43
2023-03-10T23:21:44.086Z,12.02
2023-03-10T23:24:11.005Z,11.65
2023-03-10T23:26:37.856Z,11.60
2023-03-10T23:29:04.927Z,12.10
2023-03-10T23:31:31.805Z,11.95
2023-03-10T23:33:58.832Z,11.82
2023-03-10T23:36:25.616Z,11.60
2023-03-10T23:38:52.586Z,12.95
2023-03-10T23:41:19.604Z,10.00
2023-03-10T23:43:46.486Z,7.00
2023-03-10T23:46:13.802Z,6.35
2023-03-10T23:48:40.658Z,5.40
2023-03-10T23:51:14.245Z,5.75
2023-03-10T23:53:43.196Z,5.60
2023-03-10T23:56:11.224Z,6.60
2023-03-10T23:58:38.397Z,5.85
